sensor_id;sensor_type;location;lat;lon;timestamp;P1;durP1;ratioP1;P2;durP2;ratioP2
2213;SDS011;1113;42.018;23.986;2022-09-21T00:04:44;6.57;;;5.77;;
2213;SDS011;1113;42.018;23.986;2022-09-21T00:07:11;7.00;;;5.70;;
2213;SDS011;1113;42.018;23.986;2022-09-21T00:09:38;7.13;;;5.55;;
2213;SDS011;1113;42.018;23.986;2022-09-21T00:12:05;8.38;;;6.00;;
2213;SDS011;1113;42.018;23.986;2022-09-21T00:14:33;8.88;;;6.68;;
2213;SDS011;1113;42.018;23.986;2022-09-21T00:17:00;8.00;;;6.23;;
2213;SDS011;1113;42.018;23.986;2022-09-21T00:19:26;9.10;;;6.90;;
2213;SDS011;1113;42.018;23.986;2022-09-21T00:21:53;8.23;;;6.57;;
2213;SDS011;1113;42.018;23.986;2022-09-21T00:24:20;6.60;;;5.90;;
2213;SDS011;1113;42.018;23.986;2022-09-21T00:26:47;8.93;;;5.93;;
2213;SDS011;1113;42.018;23.986;2022-09-21T00:29:14;8.90;;;7.10;;
2213;SDS011;1113;42.018;23.986;2022-09-21T00:31:42;6.43;;;5.78;;
2213;SDS011;1113;42.018;23.986;2022-09-21T00:34:09;7.20;;;6.50;;
2213;SDS011;1113;42.018;23.986;2022-09-21T00:36:35;7.60;;;6.43;;
2213;SDS011;1113;42.018;23.986;2022-09-21T00:39:02;9.30;;;8.20;;
2213;SDS011;1113;42.018;23.986;2022-09-21T00:41:30;9.52;;;7.80;;
2213;SDS011;1113;42.018;23.986;2022-09-21T00:46:51;8.30;;;6.78;;
2213;SDS011;1113;42.018;23.986;2022-09-21T00:49:21;9.73;;;6.60;;
2213;SDS011;1113;42.018;23.986;2022-09-21T00:51:48;7.93;;;6.70;;
2213;SDS011;1113;42.018;23.986;2022-09-21T00:54:18;7.07;;;6.00;;
2213;SDS011;1113;42.018;23.986;2022-09-21T00:56:49;7.35;;;6.25;;
2213;SDS011;1113;42.018;23.986;2022-09-21T00:59:16;11.77;;;7.15;;
2213;SDS011;1113;42.018;23.986;2022-09-21T01:01:44;12.55;;;8.20;;
2213;SDS011;1113;42.018;23.986;2022-09-21T01:04:13;12.10;;;8.30;;
2213;SDS011;1113;42.018;23.986;2022-09-21T01:06:43;16.27;;;11.20;;
2213;SDS011;1113;42.018;23.986;2022-09-21T01:09:10;14.47;;;10.67;;
2213;SDS011;1113;42.018;23.986;2022-09-21T01:11:39;12.33;;;9.37;;
2213;SDS011;1113;42.018;23.986;2022-09-21T01:14:18;15.93;;;9.40;;
2213;SDS011;1113;42.018;23.986;2022-09-21T01:17:00;11.47;;;8.40;;
2213;SDS011;1113;42.018;23.986;2022-09-21T01:19:41;11.47;;;8.67;;
2213;SDS011;1113;42.018;23.986;2022-09-21T01:22:19;10.40;;;8.00;;
2213;SDS011;1113;42.018;23.986;2022-09-21T01:25:01;10.52;;;7.90;;
2213;SDS011;1113;42.018;23.986;2022-09-21T01:27:47;11.10;;;7.70;;
2213;SDS011;1113;42.018;23.986;2022-09-21T01:30:20;9.70;;;7.87;;
2213;SDS011;1113;42.018;23.986;2022-09-21T01:32:50;11.10;;;8.23;;
2213;SDS011;1113;42.018;23.986;2022-09-21T01:35:22;10.00;;;7.90;;
2213;SDS011;1113;42.018;23.986;2022-09-21T01:37:53;10.67;;;8.93;;
2213;SDS011;1113;42.018;23.986;2022-09-21T01:40:24;10.00;;;8.40;;
2213;SDS011;1113;42.018;23.986;2022-09-21T01:42:56;9.73;;;8.60;;
2213;SDS011;1113;42.018;23.986;2022-09-21T01:45:29;10.77;;;9.57;;
2213;SDS011;1113;42.018;23.986;2022-09-21T01:47:59;12.53;;;9.83;;
2213;SDS011;1113;42.018;23.986;2022-09-21T01:50:28;10.02;;;8.93;;
2213;SDS011;1113;42.018;23.986;2022-09-21T01:52:59;10.35;;;9.35;;
2213;SDS011;1113;42.018;23.986;2022-09-21T01:55:32;11.25;;;9.45;;
2213;SDS011;1113;42.018;23.986;2022-09-21T01:58:04;11.88;;;9.93;;
2213;SDS011;1113;42.018;23.986;2022-09-21T02:03:18;11.95;;;9.48;;
2213;SDS011;1113;42.018;23.986;2022-09-21T02:05:53;11.90;;;9.25;;
2213;SDS011;1113;42.018;23.986;2022-09-21T02:08:21;10.90;;;9.25;;
2213;SDS011;1113;42.018;23.986;2022-09-21T02:10:50;11.40;;;9.02;;
2213;SDS011;1113;42.018;23.986;2022-09-21T02:13:19;10.30;;;9.18;;
2213;SDS011;1113;42.018;23.986;2022-09-21T02:16:00;11.82;;;9.25;;
2213;SDS011;1113;42.018;23.986;2022-09-21T02:18:38;10.20;;;8.48;;
2213;SDS011;1113;42.018;23.986;2022-09-21T02:21:14;12.77;;;10.82;;
2213;SDS011;1113;42.018;23.986;2022-09-21T02:23:50;10.57;;;9.23;;
2213;SDS011;1113;42.018;23.986;2022-09-21T02:26:25;11.95;;;9.20;;
2213;SDS011;1113;42.018;23.986;2022-09-21T02:29:00;9.70;;;8.55;;
2213;SDS011;1113;42.018;23.986;2022-09-21T02:31:35;10.05;;;9.05;;
2213;SDS011;1113;42.018;23.986;2022-09-21T02:34:09;11.75;;;10.55;;
2213;SDS011;1113;42.018;23.986;2022-09-21T02:36:46;9.45;;;7.78;;
2213;SDS011;1113;42.018;23.986;2022-09-21T02:39:15;11.07;;;9.80;;
2213;SDS011;1113;42.018;23.986;2022-09-21T02:41:48;8.80;;;7.22;;
2213;SDS011;1113;42.018;23.986;2022-09-21T02:44:25;8.38;;;7.50;;
2213;SDS011;1113;42.018;23.986;2022-09-21T02:47:00;10.05;;;8.70;;
2213;SDS011;1113;42.018;23.986;2022-09-21T02:49:33;9.15;;;7.80;;
2213;SDS011;1113;42.018;23.986;2022-09-21T02:52:03;8.27;;;6.65;;
2213;SDS011;1113;42.018;23.986;2022-09-21T02:54:34;6.88;;;6.22;;
2213;SDS011;1113;42.018;23.986;2022-09-21T02:57:03;7.57;;;6.80;;
2213;SDS011;1113;42.018;23.986;2022-09-21T02:59:32;10.02;;;7.32;;
2213;SDS011;1113;42.018;23.986;2022-09-21T03:02:00;9.55;;;7.38;;
2213;SDS011;1113;42.018;23.986;2022-09-21T03:04:27;10.48;;;8.30;;
2213;SDS011;1113;42.018;23.986;2022-09-21T03:06:54;9.63;;;8.52;;
2213;SDS011;1113;42.018;23.986;2022-09-21T03:09:22;8.38;;;7.57;;
2213;SDS011;1113;42.018;23.986;2022-09-21T03:11:48;10.75;;;8.32;;
2213;SDS011;1113;42.018;23.986;2022-09-21T03:14:15;10.55;;;8.20;;
2213;SDS011;1113;42.018;23.986;2022-09-21T03:16:43;10.55;;;8.68;;
2213;SDS011;1113;42.018;23.986;2022-09-21T03:19:12;13.18;;;10.75;;
2213;SDS011;1113;42.018;23.986;2022-09-21T03:21:39;11.20;;;10.02;;
2213;SDS011;1113;42.018;23.986;2022-09-21T03:24:06;12.27;;;10.97;;
2213;SDS011;1113;42.018;23.986;2022-09-21T03:26:33;8.60;;;7.35;;
2213;SDS011;1113;42.018;23.986;2022-09-21T03:28:59;14.05;;;7.50;;
2213;SDS011;1113;42.018;23.986;2022-09-21T03:31:27;10.20;;;7.55;;
2213;SDS011;1113;42.018;23.986;2022-09-21T03:33:55;17.63;;;12.02;;
2213;SDS011;1113;42.018;23.986;2022-09-21T03:36:23;10.02;;;7.50;;
2213;SDS011;1113;42.018;23.986;2022-09-21T03:38:50;8.45;;;7.45;;
2213;SDS011;1113;42.018;23.986;2022-09-21T03:41:17;11.18;;;7.70;;
2213;SDS011;1113;42.018;23.986;2022-09-21T03:43:43;11.10;;;9.50;;
2213;SDS011;1113;42.018;23.986;2022-09-21T03:46:10;10.77;;;8.73;;
2213;SDS011;1113;42.018;23.986;2022-09-21T03:48:37;10.35;;;9.25;;
2213;SDS011;1113;42.018;23.986;2022-09-21T03:51:04;9.52;;;7.32;;
2213;SDS011;1113;42.018;23.986;2022-09-21T03:53:32;15.35;;;13.35;;
2213;SDS011;1113;42.018;23.986;2022-09-21T03:56:00;8.90;;;8.00;;
2213;SDS011;1113;42.018;23.986;2022-09-21T03:58:27;14.95;;;10.40;;
2213;SDS011;1113;42.018;23.986;2022-09-21T04:00:53;12.60;;;10.20;;
2213;SDS011;1113;42.018;23.986;2022-09-21T04:03:25;14.05;;;11.25;;
2213;SDS011;1113;42.018;23.986;2022-09-21T04:05:52;22.38;;;20.08;;
2213;SDS011;1113;42.018;23.986;2022-09-21T04:08:19;12.45;;;11.23;;
2213;SDS011;1113;42.018;23.986;2022-09-21T04:10:47;13.93;;;11.20;;
2213;SDS011;1113;42.018;23.986;2022-09-21T04:13:14;10.75;;;9.57;;
2213;SDS011;1113;42.018;23.986;2022-09-21T04:15:41;15.75;;;10.77;;
2213;SDS011;1113;42.018;23.986;2022-09-21T04:18:08;19.48;;;14.23;;
2213;SDS011;1113;42.018;23.986;2022-09-21T04:20:34;17.67;;;14.02;;
2213;SDS011;1113;42.018;23.986;2022-09-21T04:23:01;31.65;;;23.77;;
2213;SDS011;1113;42.018;23.986;2022-09-21T04:25:28;15.82;;;12.20;;
2213;SDS011;1113;42.018;23.986;2022-09-21T04:27:56;14.45;;;11.40;;
2213;SDS011;1113;42.018;23.986;2022-09-21T04:30:23;21.00;;;16.15;;
2213;SDS011;1113;42.018;23.986;2022-09-21T04:32:53;14.40;;;10.02;;
2213;SDS011;1113;42.018;23.986;2022-09-21T04:35:21;12.20;;;10.02;;
2213;SDS011;1113;42.018;23.986;2022-09-21T04:37:48;12.10;;;10.60;;
2213;SDS011;1113;42.018;23.986;2022-09-21T04:40:15;12.38;;;10.40;;
2213;SDS011;1113;42.018;23.986;2022-09-21T04:42:41;12.40;;;11.13;;
2213;SDS011;1113;42.018;23.986;2022-09-21T04:45:10;12.43;;;10.85;;
2213;SDS011;1113;42.018;23.986;2022-09-21T04:47:37;20.75;;;17.33;;
2213;SDS011;1113;42.018;23.986;2022-09-21T04:50:04;21.10;;;18.80;;
2213;SDS011;1113;42.018;23.986;2022-09-21T04:52:31;14.38;;;12.20;;
2213;SDS011;1113;42.018;23.986;2022-09-21T04:54:58;13.32;;;11.10;;
2213;SDS011;1113;42.018;23.986;2022-09-21T04:57:25;12.30;;;11.00;;
2213;SDS011;1113;42.018;23.986;2022-09-21T04:59:51;13.60;;;11.57;;
2213;SDS011;1113;42.018;23.986;2022-09-21T05:02:20;12.20;;;10.07;;
2213;SDS011;1113;42.018;23.986;2022-09-21T05:04:47;17.20;;;14.20;;
2213;SDS011;1113;42.018;23.986;2022-09-21T05:07:14;20.17;;;13.43;;
2213;SDS011;1113;42.018;23.986;2022-09-21T05:09:41;19.03;;;12.10;;
2213;SDS011;1113;42.018;23.986;2022-09-21T05:12:25;19.63;;;12.50;;
2213;SDS011;1113;42.018;23.986;2022-09-21T05:14:52;32.10;;;23.63;;
2213;SDS011;1113;42.018;23.986;2022-09-21T05:17:21;19.50;;;14.33;;
2213;SDS011;1113;42.018;23.986;2022-09-21T05:19:48;13.10;;;10.80;;
2213;SDS011;1113;42.018;23.986;2022-09-21T05:22:15;19.30;;;16.00;;
2213;SDS011;1113;42.018;23.986;2022-09-21T05:24:42;24.27;;;19.33;;
2213;SDS011;1113;42.018;23.986;2022-09-21T05:27:09;28.47;;;19.57;;
2213;SDS011;1113;42.018;23.986;2022-09-21T05:29:37;14.30;;;11.83;;
2213;SDS011;1113;42.018;23.986;2022-09-21T05:32:06;11.47;;;8.90;;
2213;SDS011;1113;42.018;23.986;2022-09-21T05:34:42;17.43;;;10.30;;
2213;SDS011;1113;42.018;23.986;2022-09-21T05:37:20;13.50;;;10.03;;
2213;SDS011;1113;42.018;23.986;2022-09-21T05:40:05;12.30;;;8.70;;
2213;SDS011;1113;42.018;23.986;2022-09-21T05:42:35;12.20;;;10.60;;
2213;SDS011;1113;42.018;23.986;2022-09-21T05:45:02;14.37;;;11.47;;
2213;SDS011;1113;42.018;23.986;2022-09-21T05:47:33;14.73;;;12.17;;
2213;SDS011;1113;42.018;23.986;2022-09-21T05:50:12;16.37;;;12.97;;
2213;SDS011;1113;42.018;23.986;2022-09-21T05:52:49;17.30;;;13.67;;
2213;SDS011;1113;42.018;23.986;2022-09-21T05:55:26;16.27;;;12.83;;
2213;SDS011;1113;42.018;23.986;2022-09-21T05:58:00;17.30;;;10.60;;
2213;SDS011;1113;42.018;23.986;2022-09-21T06:00:37;13.07;;;10.83;;
2213;SDS011;1113;42.018;23.986;2022-09-21T06:03:18;13.40;;;11.03;;
2213;SDS011;1113;42.018;23.986;2022-09-21T06:05:53;13.00;;;11.33;;
2213;SDS011;1113;42.018;23.986;2022-09-21T06:08:20;14.37;;;11.40;;
2213;SDS011;1113;42.018;23.986;2022-09-21T06:10:47;13.80;;;11.40;;
2213;SDS011;1113;42.018;23.986;2022-09-21T06:13:14;12.43;;;10.50;;
2213;SDS011;1113;42.018;23.986;2022-09-21T06:15:41;16.63;;;11.27;;
2213;SDS011;1113;42.018;23.986;2022-09-21T06:18:08;14.43;;;10.13;;
2213;SDS011;1113;42.018;23.986;2022-09-21T06:20:35;12.10;;;10.80;;
2213;SDS011;1113;42.018;23.986;2022-09-21T06:23:03;13.37;;;10.77;;
2213;SDS011;1113;42.018;23.986;2022-09-21T06:25:31;13.20;;;10.47;;
2213;SDS011;1113;42.018;23.986;2022-09-21T06:28:00;15.30;;;10.50;;
2213;SDS011;1113;42.018;23.986;2022-09-21T06:30:28;14.23;;;9.90;;
2213;SDS011;1113;42.018;23.986;2022-09-21T06:32:57;12.63;;;10.43;;
2213;SDS011;1113;42.018;23.986;2022-09-21T06:35:25;14.47;;;12.40;;
2213;SDS011;1113;42.018;23.986;2022-09-21T06:37:55;14.73;;;12.50;;
2213;SDS011;1113;42.018;23.986;2022-09-21T06:40:24;12.20;;;9.83;;
2213;SDS011;1113;42.018;23.986;2022-09-21T06:42:54;13.17;;;10.27;;
2213;SDS011;1113;42.018;23.986;2022-09-21T06:45:22;19.07;;;10.20;;
2213;SDS011;1113;42.018;23.986;2022-09-21T06:47:48;15.90;;;11.37;;
2213;SDS011;1113;42.018;23.986;2022-09-21T06:50:15;14.00;;;9.80;;
2213;SDS011;1113;42.018;23.986;2022-09-21T06:52:42;16.43;;;8.60;;
2213;SDS011;1113;42.018;23.986;2022-09-21T06:55:09;10.70;;;8.60;;
2213;SDS011;1113;42.018;23.986;2022-09-21T06:57:37;14.87;;;8.60;;
2213;SDS011;1113;42.018;23.986;2022-09-21T07:00:04;12.00;;;8.70;;
2213;SDS011;1113;42.018;23.986;2022-09-21T07:02:33;8.20;;;7.20;;
2213;SDS011;1113;42.018;23.986;2022-09-21T07:05:00;9.27;;;7.70;;
2213;SDS011;1113;42.018;23.986;2022-09-21T07:07:27;8.93;;;8.03;;
2213;SDS011;1113;42.018;23.986;2022-09-21T07:09:55;9.93;;;8.87;;
2213;SDS011;1113;42.018;23.986;2022-09-21T07:12:25;7.77;;;6.10;;
2213;SDS011;1113;42.018;23.986;2022-09-21T07:14:54;7.90;;;5.57;;
2213;SDS011;1113;42.018;23.986;2022-09-21T07:17:22;11.37;;;6.90;;
2213;SDS011;1113;42.018;23.986;2022-09-21T07:19:51;9.63;;;7.73;;
2213;SDS011;1113;42.018;23.986;2022-09-21T07:22:19;4.80;;;4.03;;
2213;SDS011;1113;42.018;23.986;2022-09-21T07:24:46;7.20;;;5.60;;
2213;SDS011;1113;42.018;23.986;2022-09-21T07:27:13;5.93;;;4.57;;
2213;SDS011;1113;42.018;23.986;2022-09-21T07:29:39;7.87;;;5.37;;
2213;SDS011;1113;42.018;23.986;2022-09-21T07:32:08;6.57;;;5.30;;
2213;SDS011;1113;42.018;23.986;2022-09-21T07:34:35;6.90;;;5.23;;
2213;SDS011;1113;42.018;23.986;2022-09-21T07:37:02;7.40;;;5.70;;
2213;SDS011;1113;42.018;23.986;2022-09-21T07:39:29;5.20;;;4.70;;
2213;SDS011;1113;42.018;23.986;2022-09-21T07:41:56;5.33;;;4.67;;
2213;SDS011;1113;42.018;23.986;2022-09-21T07:44:23;4.60;;;4.10;;
2213;SDS011;1113;42.018;23.986;2022-09-21T07:46:50;4.80;;;3.60;;
2213;SDS011;1113;42.018;23.986;2022-09-21T07:49:18;4.70;;;3.00;;
2213;SDS011;1113;42.018;23.986;2022-09-21T07:51:45;3.47;;;2.73;;
2213;SDS011;1113;42.018;23.986;2022-09-21T07:54:12;2.90;;;2.20;;
2213;SDS011;1113;42.018;23.986;2022-09-21T07:56:40;2.27;;;2.07;;
2213;SDS011;1113;42.018;23.986;2022-09-21T07:59:27;2.57;;;2.37;;
2213;SDS011;1113;42.018;23.986;2022-09-21T08:01:56;2.47;;;1.60;;
2213;SDS011;1113;42.018;23.986;2022-09-21T08:04:24;2.60;;;2.10;;
2213;SDS011;1113;42.018;23.986;2022-09-21T08:06:51;2.50;;;2.30;;
2213;SDS011;1113;42.018;23.986;2022-09-21T08:09:18;3.70;;;2.37;;
2213;SDS011;1113;42.018;23.986;2022-09-21T08:11:45;4.90;;;1.70;;
2213;SDS011;1113;42.018;23.986;2022-09-21T08:14:12;2.30;;;2.00;;
2213;SDS011;1113;42.018;23.986;2022-09-21T08:16:43;4.73;;;2.13;;
2213;SDS011;1113;42.018;23.986;2022-09-21T08:19:11;2.30;;;2.10;;
2213;SDS011;1113;42.018;23.986;2022-09-21T08:21:39;2.60;;;2.20;;
2213;SDS011;1113;42.018;23.986;2022-09-21T08:24:06;2.60;;;2.10;;
2213;SDS011;1113;42.018;23.986;2022-09-21T08:26:33;2.20;;;1.87;;
2213;SDS011;1113;42.018;23.986;2022-09-21T08:29:00;2.20;;;2.00;;
2213;SDS011;1113;42.018;23.986;2022-09-21T08:31:26;2.50;;;2.00;;
2213;SDS011;1113;42.018;23.986;2022-09-21T08:33:54;3.10;;;1.77;;
2213;SDS011;1113;42.018;23.986;2022-09-21T08:36:22;3.00;;;1.90;;
2213;SDS011;1113;42.018;23.986;2022-09-21T08:38:50;3.40;;;2.30;;
2213;SDS011;1113;42.018;23.986;2022-09-21T08:41:19;2.90;;;1.90;;
2213;SDS011;1113;42.018;23.986;2022-09-21T08:43:50;4.00;;;2.47;;
2213;SDS011;1113;42.018;23.986;2022-09-21T08:46:21;3.20;;;1.80;;
2213;SDS011;1113;42.018;23.986;2022-09-21T08:48:52;2.13;;;1.60;;
2213;SDS011;1113;42.018;23.986;2022-09-21T08:51:25;3.27;;;1.70;;
2213;SDS011;1113;42.018;23.986;2022-09-21T08:53:56;2.63;;;1.63;;
2213;SDS011;1113;42.018;23.986;2022-09-21T08:56:27;3.20;;;1.60;;
2213;SDS011;1113;42.018;23.986;2022-09-21T08:59:00;2.20;;;1.67;;
2213;SDS011;1113;42.018;23.986;2022-09-21T09:01:40;2.10;;;1.73;;
2213;SDS011;1113;42.018;23.986;2022-09-21T09:04:25;3.27;;;2.47;;
2213;SDS011;1113;42.018;23.986;2022-09-21T09:07:07;6.40;;;4.10;;
2213;SDS011;1113;42.018;23.986;2022-09-21T09:09:48;2.50;;;2.07;;
2213;SDS011;1113;42.018;23.986;2022-09-21T09:12:27;2.77;;;2.10;;
2213;SDS011;1113;42.018;23.986;2022-09-21T09:15:12;2.77;;;1.87;;
2213;SDS011;1113;42.018;23.986;2022-09-21T09:17:54;2.30;;;2.10;;
2213;SDS011;1113;42.018;23.986;2022-09-21T09:20:28;4.40;;;2.43;;
2213;SDS011;1113;42.018;23.986;2022-09-21T09:23:02;2.40;;;2.20;;
2213;SDS011;1113;42.018;23.986;2022-09-21T09:25:37;2.50;;;1.67;;
2213;SDS011;1113;42.018;23.986;2022-09-21T09:28:12;2.93;;;1.77;;
2213;SDS011;1113;42.018;23.986;2022-09-21T09:30:45;2.90;;;1.87;;
2213;SDS011;1113;42.018;23.986;2022-09-21T09:33:18;1.97;;;1.43;;
2213;SDS011;1113;42.018;23.986;2022-09-21T09:35:48;1.70;;;1.53;;
2213;SDS011;1113;42.018;23.986;2022-09-21T09:38:20;1.87;;;1.67;;
2213;SDS011;1113;42.018;23.986;2022-09-21T09:40:58;3.03;;;1.77;;
2213;SDS011;1113;42.018;23.986;2022-09-21T09:43:40;4.40;;;1.63;;
2213;SDS011;1113;42.018;23.986;2022-09-21T09:46:17;2.27;;;1.73;;
2213;SDS011;1113;42.018;23.986;2022-09-21T09:49:03;2.10;;;1.63;;
2213;SDS011;1113;42.018;23.986;2022-09-21T09:51:37;1.90;;;1.70;;
2213;SDS011;1113;42.018;23.986;2022-09-21T09:54:04;3.00;;;1.43;;
2213;SDS011;1113;42.018;23.986;2022-09-21T09:56:40;2.77;;;1.50;;
2213;SDS011;1113;42.018;23.986;2022-09-21T09:59:09;1.80;;;1.30;;
2213;SDS011;1113;42.018;23.986;2022-09-21T10:04:55;2.70;;;2.30;;
2213;SDS011;1113;42.018;23.986;2022-09-21T10:07:32;2.30;;;2.10;;
2213;SDS011;1113;42.018;23.986;2022-09-21T10:10:00;2.13;;;1.90;;
2213;SDS011;1113;42.018;23.986;2022-09-21T10:12:29;3.20;;;1.97;;
2213;SDS011;1113;42.018;23.986;2022-09-21T10:14:56;3.40;;;2.40;;
2213;SDS011;1113;42.018;23.986;2022-09-21T10:17:25;3.50;;;2.90;;
2213;SDS011;1113;42.018;23.986;2022-09-21T10:19:57;3.10;;;2.10;;
2213;SDS011;1113;42.018;23.986;2022-09-21T10:22:26;1.80;;;1.60;;
2213;SDS011;1113;42.018;23.986;2022-09-21T10:24:54;3.40;;;1.90;;
2213;SDS011;1113;42.018;23.986;2022-09-21T10:27:24;2.07;;;1.60;;
2213;SDS011;1113;42.018;23.986;2022-09-21T10:29:54;2.20;;;1.60;;
2213;SDS011;1113;42.018;23.986;2022-09-21T10:32:22;3.00;;;1.80;;
2213;SDS011;1113;42.018;23.986;2022-09-21T10:35:01;2.17;;;1.60;;
2213;SDS011;1113;42.018;23.986;2022-09-21T10:37:43;3.33;;;1.87;;
2213;SDS011;1113;42.018;23.986;2022-09-21T10:40:22;2.27;;;1.60;;
2213;SDS011;1113;42.018;23.986;2022-09-21T10:42:51;3.60;;;1.40;;
2213;SDS011;1113;42.018;23.986;2022-09-21T10:45:22;5.50;;;2.00;;
2213;SDS011;1113;42.018;23.986;2022-09-21T10:47:51;2.57;;;2.00;;
2213;SDS011;1113;42.018;23.986;2022-09-21T10:50:20;3.60;;;1.80;;
2213;SDS011;1113;42.018;23.986;2022-09-21T10:52:50;7.70;;;1.73;;
2213;SDS011;1113;42.018;23.986;2022-09-21T10:55:23;4.90;;;2.03;;
2213;SDS011;1113;42.018;23.986;2022-09-21T10:57:52;3.40;;;2.20;;
2213;SDS011;1113;42.018;23.986;2022-09-21T11:06:00;4.63;;;1.80;;
2213;SDS011;1113;42.018;23.986;2022-09-21T11:08:32;2.10;;;1.53;;
2213;SDS011;1113;42.018;23.986;2022-09-21T11:11:12;2.17;;;1.90;;
2213;SDS011;1113;42.018;23.986;2022-09-21T11:13:58;3.40;;;1.90;;
2213;SDS011;1113;42.018;23.986;2022-09-21T11:16:34;3.10;;;2.00;;
2213;SDS011;1113;42.018;23.986;2022-09-21T11:19:08;6.20;;;2.50;;
2213;SDS011;1113;42.018;23.986;2022-09-21T11:21:49;4.70;;;2.67;;
2213;SDS011;1113;42.018;23.986;2022-09-21T11:24:23;3.43;;;3.03;;
2213;SDS011;1113;42.018;23.986;2022-09-21T11:27:03;4.10;;;3.30;;
2213;SDS011;1113;42.018;23.986;2022-09-21T11:29:37;3.23;;;2.67;;
2213;SDS011;1113;42.018;23.986;2022-09-21T11:32:20;4.23;;;2.93;;
2213;SDS011;1113;42.018;23.986;2022-09-21T11:35:10;3.27;;;2.97;;
2213;SDS011;1113;42.018;23.986;2022-09-21T11:38:01;6.10;;;3.87;;
2213;SDS011;1113;42.018;23.986;2022-09-21T11:40:47;5.70;;;3.57;;
2213;SDS011;1113;42.018;23.986;2022-09-21T11:46:23;5.67;;;2.03;;
2213;SDS011;1113;42.018;23.986;2022-09-21T11:49:05;3.80;;;2.70;;
2213;SDS011;1113;42.018;23.986;2022-09-21T11:51:51;5.23;;;2.70;;
2213;SDS011;1113;42.018;23.986;2022-09-21T11:54:34;2.60;;;2.30;;
2213;SDS011;1113;42.018;23.986;2022-09-21T11:57:12;7.67;;;3.77;;
2213;SDS011;1113;42.018;23.986;2022-09-21T11:59:49;2.70;;;2.30;;
2213;SDS011;1113;42.018;23.986;2022-09-21T12:05:37;5.97;;;4.00;;
2213;SDS011;1113;42.018;23.986;2022-09-21T12:08:26;10.93;;;3.53;;
2213;SDS011;1113;42.018;23.986;2022-09-21T12:11:05;8.90;;;2.87;;
2213;SDS011;1113;42.018;23.986;2022-09-21T12:13:42;5.07;;;2.87;;
2213;SDS011;1113;42.018;23.986;2022-09-21T12:16:17;3.93;;;1.73;;
2213;SDS011;1113;42.018;23.986;2022-09-21T12:18:52;5.63;;;2.60;;
2213;SDS011;1113;42.018;23.986;2022-09-21T12:21:26;4.23;;;2.67;;
2213;SDS011;1113;42.018;23.986;2022-09-21T12:23:56;5.20;;;4.13;;
2213;SDS011;1113;42.018;23.986;2022-09-21T12:26:28;4.10;;;2.93;;
2213;SDS011;1113;42.018;23.986;2022-09-21T12:29:02;4.77;;;2.87;;
2213;SDS011;1113;42.018;23.986;2022-09-21T12:31:41;7.83;;;4.30;;
2213;SDS011;1113;42.018;23.986;2022-09-21T12:34:13;2.73;;;2.10;;
2213;SDS011;1113;42.018;23.986;2022-09-21T12:36:45;3.90;;;1.73;;
2213;SDS011;1113;42.018;23.986;2022-09-21T12:39:20;2.70;;;2.10;;
2213;SDS011;1113;42.018;23.986;2022-09-21T12:41:51;6.17;;;2.27;;
2213;SDS011;1113;42.018;23.986;2022-09-21T12:44:31;17.67;;;3.87;;
2213;SDS011;1113;42.018;23.986;2022-09-21T12:47:16;7.07;;;2.80;;
2213;SDS011;1113;42.018;23.986;2022-09-21T12:49:52;3.20;;;2.50;;
2213;SDS011;1113;42.018;23.986;2022-09-21T12:52:26;4.83;;;2.40;;
2213;SDS011;1113;42.018;23.986;2022-09-21T12:54:58;5.80;;;2.87;;
2213;SDS011;1113;42.018;23.986;2022-09-21T12:57:33;4.10;;;2.17;;
2213;SDS011;1113;42.018;23.986;2022-09-21T13:00:14;5.17;;;4.17;;
2213;SDS011;1113;42.018;23.986;2022-09-21T13:02:45;9.70;;;6.63;;
2213;SDS011;1113;42.018;23.986;2022-09-21T13:05:20;5.27;;;4.13;;
2213;SDS011;1113;42.018;23.986;2022-09-21T13:10:42;6.93;;;4.53;;
2213;SDS011;1113;42.018;23.986;2022-09-21T13:13:19;4.27;;;2.40;;
2213;SDS011;1113;42.018;23.986;2022-09-21T13:15:50;4.10;;;2.53;;
2213;SDS011;1113;42.018;23.986;2022-09-21T13:18:20;2.90;;;1.83;;
2213;SDS011;1113;42.018;23.986;2022-09-21T13:20:49;2.37;;;1.97;;
2213;SDS011;1113;42.018;23.986;2022-09-21T13:23:21;2.70;;;2.10;;
2213;SDS011;1113;42.018;23.986;2022-09-21T13:25:58;3.17;;;2.40;;
2213;SDS011;1113;42.018;23.986;2022-09-21T13:28:40;4.47;;;3.30;;
2213;SDS011;1113;42.018;23.986;2022-09-21T13:31:28;2.77;;;2.13;;
2213;SDS011;1113;42.018;23.986;2022-09-21T13:34:19;2.40;;;1.90;;
2213;SDS011;1113;42.018;23.986;2022-09-21T13:43:13;4.93;;;3.30;;
2213;SDS011;1113;42.018;23.986;2022-09-21T13:45:50;4.47;;;3.50;;
2213;SDS011;1113;42.018;23.986;2022-09-21T13:48:19;6.20;;;3.57;;
2213;SDS011;1113;42.018;23.986;2022-09-21T13:50:51;3.60;;;3.00;;
2213;SDS011;1113;42.018;23.986;2022-09-21T13:53:24;2.20;;;1.43;;
2213;SDS011;1113;42.018;23.986;2022-09-21T13:55:59;2.87;;;1.40;;
2213;SDS011;1113;42.018;23.986;2022-09-21T13:58:34;2.63;;;2.40;;
2213;SDS011;1113;42.018;23.986;2022-09-21T14:01:11;4.30;;;2.30;;
2213;SDS011;1113;42.018;23.986;2022-09-21T14:03:42;2.97;;;2.57;;
2213;SDS011;1113;42.018;23.986;2022-09-21T14:06:13;3.80;;;3.07;;
2213;SDS011;1113;42.018;23.986;2022-09-21T14:08:46;3.30;;;2.53;;
2213;SDS011;1113;42.018;23.986;2022-09-21T14:11:19;2.60;;;2.40;;
2213;SDS011;1113;42.018;23.986;2022-09-21T14:14:00;3.73;;;2.13;;
2213;SDS011;1113;42.018;23.986;2022-09-21T14:16:48;4.97;;;2.30;;
2213;SDS011;1113;42.018;23.986;2022-09-21T14:22:36;2.97;;;2.40;;
2213;SDS011;1113;42.018;23.986;2022-09-21T14:27:57;6.10;;;2.97;;
2213;SDS011;1113;42.018;23.986;2022-09-21T14:30:31;3.20;;;2.83;;
2213;SDS011;1113;42.018;23.986;2022-09-21T14:33:03;2.37;;;2.13;;
2213;SDS011;1113;42.018;23.986;2022-09-21T14:35:39;2.43;;;2.07;;
2213;SDS011;1113;42.018;23.986;2022-09-21T14:38:12;3.90;;;2.80;;
2213;SDS011;1113;42.018;23.986;2022-09-21T14:40:44;3.90;;;2.83;;
2213;SDS011;1113;42.018;23.986;2022-09-21T14:43:15;3.27;;;2.53;;
2213;SDS011;1113;42.018;23.986;2022-09-21T14:45:51;5.33;;;2.73;;
2213;SDS011;1113;42.018;23.986;2022-09-21T14:48:32;3.90;;;2.83;;
2213;SDS011;1113;42.018;23.986;2022-09-21T14:51:06;3.70;;;3.00;;
2213;SDS011;1113;42.018;23.986;2022-09-21T14:53:53;3.40;;;2.20;;
2213;SDS011;1113;42.018;23.986;2022-09-21T14:56:35;3.20;;;2.30;;
2213;SDS011;1113;42.018;23.986;2022-09-21T14:59:24;4.40;;;3.10;;
2213;SDS011;1113;42.018;23.986;2022-09-21T15:02:11;3.53;;;3.17;;
2213;SDS011;1113;42.018;23.986;2022-09-21T15:04:50;3.63;;;3.10;;
2213;SDS011;1113;42.018;23.986;2022-09-21T15:07:33;4.30;;;3.63;;
2213;SDS011;1113;42.018;23.986;2022-09-21T15:10:23;3.70;;;3.40;;
2213;SDS011;1113;42.018;23.986;2022-09-21T15:13:14;3.97;;;3.57;;
2213;SDS011;1113;42.018;23.986;2022-09-21T15:15:49;7.37;;;4.13;;
2213;SDS011;1113;42.018;23.986;2022-09-21T15:18:26;6.00;;;5.13;;
2213;SDS011;1113;42.018;23.986;2022-09-21T15:20:55;7.13;;;5.00;;
2213;SDS011;1113;42.018;23.986;2022-09-21T15:23:25;4.57;;;3.77;;
2213;SDS011;1113;42.018;23.986;2022-09-21T15:25:55;4.30;;;3.47;;
2213;SDS011;1113;42.018;23.986;2022-09-21T15:28:27;4.57;;;3.90;;
2213;SDS011;1113;42.018;23.986;2022-09-21T15:31:00;3.50;;;3.20;;
2213;SDS011;1113;42.018;23.986;2022-09-21T15:33:29;3.50;;;3.10;;
2213;SDS011;1113;42.018;23.986;2022-09-21T15:35:59;3.20;;;2.75;;
2213;SDS011;1113;42.018;23.986;2022-09-21T15:38:27;3.87;;;3.20;;
2213;SDS011;1113;42.018;23.986;2022-09-21T15:40:55;8.13;;;5.07;;
2213;SDS011;1113;42.018;23.986;2022-09-21T15:43:22;40.47;;;36.80;;
2213;SDS011;1113;42.018;23.986;2022-09-21T15:45:50;23.47;;;15.97;;
2213;SDS011;1113;42.018;23.986;2022-09-21T15:48:19;11.70;;;10.50;;
2213;SDS011;1113;42.018;23.986;2022-09-21T15:50:53;7.60;;;5.90;;
2213;SDS011;1113;42.018;23.986;2022-09-21T15:53:24;5.00;;;4.03;;
2213;SDS011;1113;42.018;23.986;2022-09-21T15:55:55;7.63;;;5.37;;
2213;SDS011;1113;42.018;23.986;2022-09-21T15:58:29;7.47;;;5.60;;
2213;SDS011;1113;42.018;23.986;2022-09-21T16:00:59;4.03;;;3.20;;